createdAt,value
2023-04-08T00:00:21.134Z,6.60
2023-04-08T00:02:47.833Z,6.60
2023-04-08T00:05:14.407Z,6.60
2023-04-08T00:07:41.000Z,6.50
2023-04-08T00:10:07.992Z,6.50
2023-04-08T00:12:34.681Z,6.50
2023-04-08T00:15:01.398Z,6.50
2023-04-08T00:17:28.575Z,6.50
2023-04-08T00:19:56.525Z,6.50
2023-04-08T00:22:23.146Z,6.60
2023-04-08T00:24:49.800Z,6.60
2023-04-08T00:27:16.435Z,6.60
2023-04-08T00:29:43.030Z,6.60
2023-04-08T00:32:10.077Z,6.60
2023-04-08T00:34:37.116Z,6.60
2023-04-08T00:37:03.753Z,6.60
2023-04-08T00:39:30.480Z,6.60
2023-04-08T00:41:57.651Z,6.60
2023-04-08T00:44:24.286Z,6.60
2023-04-08T00:46:51.037Z,6.60
2023-04-08T00:49:17.740Z,6.60
2023-04-08T00:51:44.370Z,6.60
2023-04-08T00:54:11.293Z,6.60
2023-04-08T00:56:38.255Z,6.60
2023-04-08T00:59:05.191Z,6.70
2023-04-08T01:01:34.899Z,6.70
2023-04-08T01:04:09.551Z,6.70
2023-04-08T01:06:51.319Z,6.70
2023-04-08T01:09:18.993Z,6.80
2023-04-08T01:11:48.984Z,6.70
2023-04-08T01:14:17.284Z,6.60
2023-04-08T01:16:44.070Z,6.60
2023-04-08T01:19:17.707Z,6.60
2023-04-08T01:21:44.438Z,6.60
2023-04-08T01:24:20.328Z,6.50
2023-04-08T01:26:47.193Z,6.60
2023-04-08T01:29:14.035Z,6.60
2023-04-08T01:31:41.695Z,6.50
2023-04-08T01:34:08.830Z,6.60
2023-04-08T01:36:37.160Z,6.60
2023-04-08T01:39:05.751Z,6.50
2023-04-08T01:41:34.159Z,6.60
2023-04-08T01:44:00.945Z,6.60
2023-04-08T01:46:27.718Z,6.60
2023-04-08T01:48:54.824Z,6.60
2023-04-08T01:51:22.184Z,6.60
2023-04-08T01:53:49.979Z,6.60
2023-04-08T01:56:16.955Z,6.60
2023-04-08T01:58:46.786Z,6.60
2023-04-08T02:01:16.288Z,6.60
2023-04-08T02:03:44.164Z,6.70
2023-04-08T02:06:11.079Z,6.70
2023-04-08T02:08:38.291Z,6.60
2023-04-08T02:11:05.022Z,6.60
2023-04-08T02:13:31.992Z,6.50
2023-04-08T02:16:07.909Z,6.50
2023-04-08T02:18:35.473Z,6.50
2023-04-08T02:21:22.754Z,6.40
2023-04-08T02:23:51.290Z,6.50
2023-04-08T02:26:19.386Z,6.40
2023-04-08T02:28:48.233Z,6.40
2023-04-08T02:31:17.101Z,6.50
2023-04-08T02:33:45.999Z,6.50
2023-04-08T02:36:13.163Z,6.60
2023-04-08T02:38:40.871Z,6.50
2023-04-08T02:41:07.473Z,6.50
2023-04-08T02:43:34.327Z,6.40
2023-04-08T02:46:05.507Z,6.50
2023-04-08T02:48:32.212Z,6.50
2023-04-08T02:50:58.847Z,6.50
2023-04-08T02:53:25.556Z,6.50
2023-04-08T02:55:52.429Z,6.40
2023-04-08T02:58:19.057Z,6.40
2023-04-08T03:00:46.044Z,6.50
2023-04-08T03:03:12.734Z,6.40
2023-04-08T03:05:39.428Z,6.40
2023-04-08T03:08:06.827Z,6.40
2023-04-08T03:10:33.508Z,6.50
2023-04-08T03:13:00.240Z,6.60
2023-04-08T03:15:27.646Z,6.60
2023-04-08T03:17:54.379Z,6.50
2023-04-08T03:20:20.984Z,6.50
2023-04-08T03:22:47.582Z,6.40
2023-04-08T03:25:14.230Z,6.20
2023-04-08T03:27:40.863Z,6.40
2023-04-08T03:30:07.955Z,6.30
2023-04-08T03:32:34.769Z,6.40
2023-04-08T03:35:02.347Z,6.40
2023-04-08T03:37:28.951Z,6.30
2023-04-08T03:39:56.180Z,6.10
2023-04-08T03:42:22.803Z,6.20
2023-04-08T03:44:49.460Z,6.10
2023-04-08T03:47:16.087Z,6.20
2023-04-08T03:49:42.689Z,6.10
2023-04-08T03:52:09.366Z,6.20
2023-04-08T03:54:35.940Z,6.20
2023-04-08T03:57:02.542Z,6.20
2023-04-08T03:59:29.184Z,6.10
2023-04-08T04:01:56.389Z,6.10
2023-04-08T04:04:23.762Z,6.10
2023-04-08T04:06:50.529Z,6.20
2023-04-08T04:09:17.209Z,6.20
2023-04-08T04:11:43.803Z,6.10
2023-04-08T04:14:10.476Z,6.00
2023-04-08T04:16:37.134Z,6.10
2023-04-08T04:19:03.746Z,6.10
2023-04-08T04:21:30.412Z,6.10
2023-04-08T04:23:57.022Z,6.20
2023-04-08T04:26:23.626Z,6.10
2023-04-08T04:28:50.552Z,6.20
2023-04-08T04:31:21.733Z,6.10
2023-04-08T04:33:48.929Z,6.10
2023-04-08T04:36:15.740Z,6.10
2023-04-08T04:38:43.067Z,6.00
2023-04-08T04:41:09.742Z,6.00
2023-04-08T04:43:36.507Z,6.00
2023-04-08T04:46:06.956Z,5.90
2023-04-08T04:48:33.716Z,6.00
2023-04-08T04:51:01.436Z,5.90
2023-04-08T04:53:29.308Z,5.90
2023-04-08T04:55:55.947Z,6.00
2023-04-08T04:58:22.549Z,6.00
2023-04-08T05:00:49.126Z,6.00
2023-04-08T05:03:16.602Z,6.00
2023-04-08T05:05:43.444Z,6.00
2023-04-08T05:08:11.319Z,6.00
2023-04-08T05:10:40.377Z,6.00
2023-04-08T05:13:06.906Z,5.90
2023-04-08T05:15:33.476Z,6.00
2023-04-08T05:18:00.110Z,6.10
2023-04-08T05:20:27.713Z,6.10
2023-04-08T05:22:54.268Z,6.10
2023-04-08T05:25:21.464Z,6.00
2023-04-08T05:27:48.052Z,6.00
2023-04-08T05:30:14.673Z,6.10
2023-04-08T05:32:41.417Z,6.00
2023-04-08T05:35:09.458Z,6.00
2023-04-08T05:37:36.173Z,6.10
2023-04-08T05:40:03.234Z,6.10
2023-04-08T05:42:29.983Z,6.10
2023-04-08T05:44:56.531Z,6.20
2023-04-08T05:47:23.130Z,6.10
2023-04-08T05:49:51.171Z,6.10
2023-04-08T05:52:17.917Z,6.10
2023-04-08T05:54:44.570Z,6.10
2023-04-08T05:57:11.573Z,6.20
2023-04-08T05:59:38.127Z,6.30
2023-04-08T06:02:04.934Z,6.40
2023-04-08T06:04:31.661Z,6.40
2023-04-08T06:06:59.762Z,6.30
2023-04-08T06:09:26.465Z,6.40
2023-04-08T06:11:53.084Z,6.60
2023-04-08T06:14:20.780Z,6.60
2023-04-08T06:16:47.536Z,6.60
2023-04-08T06:19:14.246Z,6.60
2023-04-08T06:21:40.897Z,6.70
2023-04-08T06:24:07.506Z,6.60
2023-04-08T06:26:34.071Z,6.50
2023-04-08T06:29:02.196Z,6.50
2023-04-08T06:31:28.769Z,6.60
2023-04-08T06:33:55.905Z,6.60
2023-04-08T06:36:22.502Z,6.50
2023-04-08T06:38:49.409Z,6.50
2023-04-08T06:41:16.220Z,6.60
2023-04-08T06:43:42.830Z,6.70
2023-04-08T06:46:09.482Z,6.80
2023-04-08T06:48:37.693Z,6.70
2023-04-08T06:51:04.508Z,6.70
2023-04-08T06:53:32.677Z,6.40
2023-04-08T06:55:59.705Z,6.60
2023-04-08T06:58:26.377Z,6.60
2023-04-08T07:00:56.379Z,6.70
2023-04-08T07:03:23.299Z,6.80
2023-04-08T07:05:50.044Z,6.70
2023-04-08T07:08:16.716Z,6.60
2023-04-08T07:10:43.299Z,6.60
2023-04-08T07:13:10.476Z,6.70
2023-04-08T07:15:37.226Z,6.70
2023-04-08T07:18:04.705Z,6.80
2023-04-08T07:20:32.396Z,6.90
2023-04-08T07:22:59.052Z,6.90
2023-04-08T07:25:25.712Z,6.90
2023-04-08T07:27:52.886Z,7.00
2023-04-08T07:30:19.701Z,6.80
2023-04-08T07:32:46.363Z,7.00
2023-04-08T07:35:13.134Z,7.00
2023-04-08T07:37:39.712Z,7.00
2023-04-08T07:40:06.718Z,7.10
2023-04-08T07:42:33.338Z,7.00
2023-04-08T07:45:00.226Z,7.10
2023-04-08T07:47:27.622Z,7.20
2023-04-08T07:49:54.549Z,7.30
2023-04-08T07:52:21.621Z,7.20
2023-04-08T07:54:48.247Z,7.10
2023-04-08T07:57:15.213Z,7.10
2023-04-08T07:59:42.013Z,7.10
2023-04-08T08:02:08.693Z,7.10
2023-04-08T08:04:35.617Z,7.10
2023-04-08T08:07:02.353Z,7.20
2023-04-08T08:09:30.579Z,7.50
2023-04-08T08:11:58.715Z,7.50
2023-04-08T08:14:26.694Z,7.50
2023-04-08T08:16:54.272Z,7.80
2023-04-08T08:19:21.308Z,7.60
2023-04-08T08:21:47.942Z,7.40
2023-04-08T08:24:14.829Z,7.40
2023-04-08T08:26:41.774Z,7.50
2023-04-08T08:29:08.905Z,7.80
2023-04-08T08:31:35.775Z,7.70
2023-04-08T08:34:02.782Z,7.70
2023-04-08T08:36:29.448Z,7.50
2023-04-08T08:38:56.319Z,7.50
2023-04-08T08:41:23.025Z,7.40
2023-04-08T08:43:49.850Z,7.50
2023-04-08T08:46:17.421Z,7.60
2023-04-08T08:48:44.167Z,7.70
2023-04-08T08:51:11.779Z,7.60
2023-04-08T08:53:38.648Z,7.70
2023-04-08T08:56:17.954Z,7.60
2023-04-08T08:58:45.761Z,7.60
2023-04-08T09:01:32.287Z,7.90
2023-04-08T09:04:16.959Z,8.20
2023-04-08T09:06:48.767Z,8.10
2023-04-08T09:09:15.894Z,8.50
2023-04-08T09:11:43.655Z,8.50
2023-04-08T09:14:20.197Z,8.50
2023-04-08T09:16:47.206Z,8.50
2023-04-08T09:19:14.025Z,8.40
2023-04-08T09:21:43.745Z,8.60
2023-04-08T09:24:26.725Z,8.70
2023-04-08T09:26:53.285Z,8.70
2023-04-08T09:31:56.092Z,8.50
2023-04-08T09:34:23.316Z,8.60
2023-04-08T09:36:50.768Z,8.60
2023-04-08T09:39:17.751Z,8.80
2023-04-08T09:41:44.645Z,9.20
2023-04-08T09:44:12.034Z,9.40
2023-04-08T09:46:44.596Z,8.80
2023-04-08T09:49:23.451Z,8.90
2023-04-08T09:51:53.083Z,8.70
2023-04-08T09:54:22.972Z,8.90
2023-04-08T09:56:53.156Z,8.80
2023-04-08T09:59:21.739Z,8.70
2023-04-08T10:01:53.374Z,8.80
2023-04-08T10:04:21.088Z,8.90
2023-04-08T10:07:08.092Z,9.00
2023-04-08T10:09:34.895Z,8.80
2023-04-08T10:12:03.926Z,8.90
2023-04-08T10:14:31.312Z,9.00
2023-04-08T10:17:16.515Z,9.00
2023-04-08T10:19:43.145Z,9.20
2023-04-08T10:22:35.523Z,9.30
2023-04-08T10:25:22.129Z,9.30
2023-04-08T10:27:48.817Z,9.00
2023-04-08T10:30:27.682Z,9.10
2023-04-08T10:32:57.491Z,9.00
2023-04-08T10:35:31.287Z,9.00
2023-04-08T10:37:58.632Z,9.10
2023-04-08T10:40:25.415Z,9.30
2023-04-08T10:42:55.954Z,9.20
2023-04-08T10:45:22.609Z,9.10
2023-04-08T10:47:49.277Z,9.00
2023-04-08T10:50:17.269Z,8.90
2023-04-08T10:52:50.815Z,9.00
2023-04-08T10:55:22.862Z,9.00
2023-04-08T10:57:50.742Z,9.10
2023-04-08T11:00:32.191Z,9.20
2023-04-08T11:03:06.561Z,9.40
2023-04-08T11:05:33.597Z,9.60
2023-04-08T11:08:00.317Z,9.60
2023-04-08T11:10:28.713Z,9.80
2023-04-08T11:12:55.799Z,10.00
2023-04-08T11:15:24.062Z,9.80
2023-04-08T11:17:51.409Z,9.70
2023-04-08T11:20:18.212Z,9.90
2023-04-08T11:22:45.171Z,9.80
2023-04-08T11:25:11.884Z,9.80
2023-04-08T11:27:39.507Z,10.10
2023-04-08T11:30:09.083Z,10.30
2023-04-08T11:32:36.371Z,10.40
2023-04-08T11:35:05.007Z,10.50
2023-04-08T11:37:38.253Z,10.50
2023-04-08T11:40:08.732Z,10.40
2023-04-08T11:42:35.360Z,10.60
2023-04-08T11:45:09.573Z,10.90
2023-04-08T11:47:36.499Z,10.80
2023-04-08T11:50:03.276Z,10.90
2023-04-08T11:52:49.790Z,10.80
2023-04-08T11:55:26.496Z,10.80
2023-04-08T11:57:53.863Z,10.50
2023-04-08T12:00:20.948Z,10.30
2023-04-08T12:02:51.042Z,10.40
2023-04-08T12:05:17.830Z,10.10
2023-04-08T12:07:44.472Z,10.30
2023-04-08T12:10:11.558Z,10.50
2023-04-08T12:12:38.572Z,10.50
2023-04-08T12:15:05.697Z,10.80
2023-04-08T12:17:32.264Z,10.50
2023-04-08T12:19:58.869Z,10.00
2023-04-08T12:22:25.616Z,10.60
2023-04-08T12:24:52.345Z,10.60
2023-04-08T12:27:18.917Z,10.30
2023-04-08T12:29:46.147Z,10.00
2023-04-08T12:32:13.384Z,10.30
2023-04-08T12:34:39.937Z,10.50
2023-04-08T12:37:06.666Z,10.60
2023-04-08T12:39:33.359Z,10.80
2023-04-08T12:41:59.915Z,10.50
2023-04-08T12:44:26.552Z,10.00
2023-04-08T12:46:53.186Z,10.10
2023-04-08T12:49:19.822Z,10.10
2023-04-08T12:51:46.393Z,10.20
2023-04-08T12:54:13.045Z,10.30
2023-04-08T12:56:39.602Z,10.10
2023-04-08T12:59:06.380Z,10.00
2023-04-08T13:01:33.139Z,10.30
2023-04-08T13:04:00.195Z,10.20
2023-04-08T13:06:28.098Z,9.90
2023-04-08T13:08:54.761Z,9.80
2023-04-08T13:11:21.405Z,9.80
2023-04-08T13:13:48.059Z,9.70
2023-04-08T13:16:15.343Z,9.90
2023-04-08T13:18:42.226Z,10.00
2023-04-08T13:21:09.235Z,9.90
2023-04-08T13:23:35.849Z,10.00
2023-04-08T13:26:02.778Z,10.00
2023-04-08T13:28:29.400Z,10.10
2023-04-08T13:30:56.342Z,10.00
2023-04-08T13:33:23.013Z,10.00
2023-04-08T13:35:49.692Z,9.80
2023-04-08T13:38:16.299Z,10.10
2023-04-08T13:40:43.745Z,10.30
2023-04-08T13:43:10.328Z,10.20
2023-04-08T13:45:36.976Z,10.20
2023-04-08T13:48:04.808Z,10.00
2023-04-08T13:50:31.406Z,10.10
2023-04-08T13:52:58.395Z,10.10
2023-04-08T13:55:25.286Z,10.10
2023-04-08T13:57:51.876Z,10.10
2023-04-08T14:00:18.461Z,10.30
2023-04-08T14:02:45.215Z,10.00
2023-04-08T14:05:11.890Z,10.00
2023-04-08T14:07:38.539Z,10.10
2023-04-08T14:10:05.655Z,10.00
2023-04-08T14:12:32.280Z,10.00
2023-04-08T14:14:58.969Z,10.10
2023-04-08T14:17:25.631Z,9.90
2023-04-08T14:19:52.252Z,9.90
2023-04-08T14:22:19.087Z,9.90
2023-04-08T14:24:46.056Z,10.00
2023-04-08T14:27:12.703Z,9.90
2023-04-08T14:29:39.358Z,10.00
2023-04-08T14:32:06.546Z,10.00
2023-04-08T14:34:33.118Z,10.00
2023-04-08T14:36:59.705Z,10.10
2023-04-08T14:39:26.986Z,10.30
2023-04-08T14:41:53.564Z,10.30
2023-04-08T14:44:20.295Z,10.00
2023-04-08T14:46:47.078Z,10.10
2023-04-08T14:49:13.767Z,10.10
2023-04-08T14:51:40.371Z,9.90
2023-04-08T14:54:06.931Z,10.20
2023-04-08T14:56:33.557Z,10.20
2023-04-08T14:59:00.175Z,10.10
2023-04-08T15:01:28.923Z,10.20
2023-04-08T15:03:55.723Z,10.10
2023-04-08T15:06:22.488Z,10.30
2023-04-08T15:08:49.426Z,10.10
2023-04-08T15:11:16.574Z,10.30
2023-04-08T15:13:43.144Z,10.20
2023-04-08T15:17:00.433Z,10.10
2023-04-08T15:19:27.728Z,10.50
2023-04-08T15:21:54.496Z,10.40
2023-04-08T15:24:21.264Z,10.30
2023-04-08T15:26:47.953Z,10.10
2023-04-08T15:29:14.615Z,10.20
2023-04-08T15:31:41.624Z,10.20
2023-04-08T15:34:08.279Z,10.30
2023-04-08T15:36:37.259Z,10.20
2023-04-08T15:39:04.238Z,10.30
2023-04-08T15:41:32.262Z,10.10
2023-04-08T15:43:58.936Z,10.10
2023-04-08T15:46:25.618Z,9.90
2023-04-08T15:48:52.565Z,9.80
2023-04-08T15:51:20.269Z,10.00
2023-04-08T15:53:47.214Z,10.00
2023-04-08T15:56:17.714Z,9.90
2023-04-08T15:58:45.552Z,9.80
2023-04-08T16:01:12.505Z,9.90
2023-04-08T16:03:39.572Z,9.90
2023-04-08T16:06:06.445Z,9.80
2023-04-08T16:08:34.736Z,9.90
2023-04-08T16:11:03.361Z,9.80
2023-04-08T16:13:30.749Z,9.80
2023-04-08T16:15:58.442Z,9.70
2023-04-08T16:18:25.883Z,9.70
2023-04-08T16:20:53.209Z,9.60
2023-04-08T16:23:20.203Z,9.70
2023-04-08T16:25:46.967Z,9.70
2023-04-08T16:28:13.880Z,9.60
2023-04-08T16:30:43.773Z,9.50
2023-04-08T16:33:13.850Z,9.50
2023-04-08T16:35:40.545Z,9.40
2023-04-08T16:38:07.304Z,9.40
2023-04-08T16:40:34.925Z,9.40
2023-04-08T16:43:04.731Z,9.40
2023-04-08T16:45:32.597Z,9.30
2023-04-08T16:48:00.514Z,9.30
2023-04-08T16:50:28.379Z,9.20
2023-04-08T16:52:55.496Z,9.20
2023-04-08T16:55:22.167Z,9.30
2023-04-08T16:57:49.049Z,9.30
2023-04-08T17:00:17.476Z,9.20
2023-04-08T17:02:47.320Z,9.20
2023-04-08T17:05:14.106Z,9.20
2023-04-08T17:07:41.012Z,9.20
2023-04-08T17:10:08.454Z,9.10
2023-04-08T17:12:36.159Z,9.20
2023-04-08T17:15:03.378Z,9.10
2023-04-08T17:17:30.093Z,9.00
2023-04-08T17:19:56.936Z,9.00
2023-04-08T17:22:23.723Z,8.90
2023-04-08T17:24:50.483Z,9.00
2023-04-08T17:27:17.317Z,9.00
2023-04-08T17:29:44.385Z,8.90
2023-04-08T17:32:12.426Z,8.90
2023-04-08T17:34:40.856Z,8.90
2023-04-08T17:37:09.252Z,8.90
2023-04-08T17:39:40.541Z,8.90
2023-04-08T17:42:08.193Z,8.90
2023-04-08T17:44:34.909Z,8.90
2023-04-08T17:47:05.887Z,8.70
2023-04-08T17:49:32.569Z,8.70
2023-04-08T17:51:59.262Z,8.70
2023-04-08T17:54:26.219Z,8.60
2023-04-08T17:56:53.087Z,8.60
2023-04-08T17:59:19.789Z,8.60
2023-04-08T18:01:46.484Z,8.60
2023-04-08T18:04:13.713Z,8.60
2023-04-08T18:06:40.678Z,8.60
2023-04-08T18:09:07.340Z,8.60
2023-04-08T18:11:33.994Z,8.60
2023-04-08T18:14:00.638Z,8.70
2023-04-08T18:16:27.411Z,8.60
2023-04-08T18:18:54.057Z,8.60
2023-04-08T18:21:22.024Z,8.60
2023-04-08T18:23:49.999Z,8.60
2023-04-08T18:26:17.168Z,8.50
2023-04-08T18:28:43.978Z,8.50
2023-04-08T18:31:10.880Z,8.40
2023-04-08T18:33:38.964Z,8.40
2023-04-08T18:36:07.450Z,8.40
2023-04-08T18:38:36.068Z,8.40
2023-04-08T18:41:04.052Z,8.40
2023-04-08T18:43:30.916Z,8.50
2023-04-08T18:45:58.036Z,8.40
2023-04-08T18:48:24.786Z,8.40
2023-04-08T18:50:51.537Z,8.40
2023-04-08T18:53:18.221Z,8.40
2023-04-08T18:55:45.461Z,8.40
2023-04-08T18:58:12.112Z,8.40
2023-04-08T19:00:41.995Z,8.40
2023-04-08T19:03:10.224Z,8.40
2023-04-08T19:05:37.556Z,8.50
2023-04-08T19:08:04.762Z,8.40
2023-04-08T19:10:33.176Z,8.50
2023-04-08T19:13:00.704Z,8.40
2023-04-08T19:15:28.697Z,8.40
2023-04-08T19:17:56.377Z,8.40
2023-04-08T19:20:23.272Z,8.40
2023-04-08T19:22:50.287Z,8.40
2023-04-08T19:25:17.592Z,8.40
2023-04-08T19:27:45.737Z,8.40
2023-04-08T19:30:12.936Z,8.40
2023-04-08T19:32:39.748Z,8.30
2023-04-08T19:35:07.122Z,8.40
2023-04-08T19:37:33.779Z,8.40
2023-04-08T19:40:00.589Z,8.40
2023-04-08T19:42:27.743Z,8.30
2023-04-08T19:44:55.182Z,8.40
2023-04-08T19:47:22.069Z,8.40
2023-04-08T19:49:48.825Z,8.40
2023-04-08T19:52:15.468Z,8.40
2023-04-08T19:54:43.387Z,8.40
2023-04-08T19:57:11.466Z,8.40
2023-04-08T19:59:38.207Z,8.40
2023-04-08T20:02:05.238Z,8.40
2023-04-08T20:04:32.702Z,8.40
2023-04-08T20:07:03.354Z,8.40
2023-04-08T20:09:32.316Z,8.30
2023-04-08T20:12:04.412Z,8.30
2023-04-08T20:14:31.955Z,8.30
2023-04-08T20:16:59.100Z,8.30
2023-04-08T20:19:26.229Z,8.30
2023-04-08T20:21:53.251Z,8.20
2023-04-08T20:24:20.038Z,8.10
2023-04-08T20:26:47.024Z,8.00
2023-04-08T20:29:13.659Z,7.90
2023-04-08T20:31:40.351Z,7.80
2023-04-08T20:34:07.064Z,7.80
2023-04-08T20:36:34.252Z,7.70
2023-04-08T20:39:00.929Z,7.60
2023-04-08T20:41:27.813Z,7.60
2023-04-08T20:43:54.877Z,7.50
2023-04-08T20:46:22.392Z,7.40
2023-04-08T20:48:49.302Z,7.30
2023-04-08T20:51:17.370Z,7.20
2023-04-08T20:53:44.630Z,7.10
2023-04-08T20:56:11.385Z,7.10
2023-04-08T20:58:38.096Z,7.00
2023-04-08T21:01:04.873Z,7.00
2023-04-08T21:03:32.630Z,6.90
2023-04-08T21:05:59.397Z,6.80
2023-04-08T21:08:26.133Z,6.80
2023-04-08T21:10:54.231Z,6.80
2023-04-08T21:13:21.121Z,6.80
2023-04-08T21:15:47.795Z,6.80
2023-04-08T21:18:14.487Z,6.80
2023-04-08T21:20:41.221Z,6.80
2023-04-08T21:23:08.099Z,6.80
2023-04-08T21:25:34.876Z,6.80
2023-04-08T21:28:02.296Z,6.80
2023-04-08T21:30:29.127Z,6.80
2023-04-08T21:32:55.815Z,6.80
2023-04-08T21:35:23.745Z,6.80
2023-04-08T21:37:50.646Z,6.70
2023-04-08T21:40:17.478Z,6.60
2023-04-08T21:42:44.418Z,6.50
2023-04-08T21:45:11.582Z,6.50
2023-04-08T21:47:38.397Z,6.40
2023-04-08T21:50:06.128Z,6.30
2023-04-08T21:52:32.835Z,6.20
2023-04-08T21:54:59.614Z,6.10
2023-04-08T21:57:26.394Z,6.00
2023-04-08T21:59:53.074Z,5.90
2023-04-08T22:02:19.826Z,5.90
2023-04-08T22:04:46.738Z,5.80
2023-04-08T22:07:13.515Z,5.80
2023-04-08T22:09:40.352Z,5.70
2023-04-08T22:12:08.671Z,5.60
2023-04-08T22:14:35.314Z,5.50
2023-04-08T22:17:02.211Z,5.40
2023-04-08T22:19:28.987Z,5.30
2023-04-08T22:21:55.825Z,5.20
2023-04-08T22:24:22.549Z,5.20
2023-04-08T22:26:49.289Z,5.20
2023-04-08T22:29:16.205Z,5.10
2023-04-08T22:31:42.857Z,5.10
2023-04-08T22:34:09.573Z,5.00
2023-04-08T22:36:36.264Z,5.00
2023-04-08T22:39:03.814Z,5.10
2023-04-08T22:41:30.562Z,4.90
2023-04-08T22:43:57.263Z,4.90
2023-04-08T22:46:23.944Z,4.80
2023-04-08T22:48:50.816Z,4.70
2023-04-08T22:51:17.840Z,4.70
2023-04-08T22:53:44.457Z,4.60
2023-04-08T22:56:11.392Z,4.60
2023-04-08T22:58:38.086Z,4.60
2023-04-08T23:01:16.901Z,4.50
2023-04-08T23:03:44.334Z,4.50
2023-04-08T23:06:11.413Z,4.50
2023-04-08T23:08:38.665Z,4.50
2023-04-08T23:11:06.607Z,4.40
2023-04-08T23:13:33.358Z,4.40
2023-04-08T23:16:00.123Z,4.40
2023-04-08T23:18:27.714Z,4.30
2023-04-08T23:20:58.276Z,4.40
2023-04-08T23:23:25.394Z,4.40
2023-04-08T23:25:55.341Z,4.50
2023-04-08T23:28:22.624Z,4.50
2023-04-08T23:30:49.647Z,4.30
2023-04-08T23:33:16.970Z,4.30
2023-04-08T23:35:43.846Z,4.30
2023-04-08T23:38:10.556Z,4.20
2023-04-08T23:40:37.311Z,4.20
2023-04-08T23:43:04.092Z,4.20
2023-04-08T23:45:30.800Z,4.20
2023-04-08T23:47:57.531Z,4.20
2023-04-08T23:50:24.287Z,4.20
2023-04-08T23:52:51.166Z,4.30
2023-04-08T23:55:17.837Z,4.30
2023-04-08T23:57:44.621Z,4.20
